Atwood, Wisconsin
Current Conditions -  °F | °C
As of 12:15 AM on Tuesday 21 Oct 2014 (Local Time) from KMDZ Reporting Station
Overcast Overcast  
Wind Chill: 41°   Ceiling: 3300
Heat Index: 44°   Visibility: 10mi
Dew Point: 39°   Wind: 6mph
Humidity: 83%   Direction: 360°N
Pressure: 30.07"   Gusts: NA
Location:  44.9782°N, 90.5368°W
Report Text: KMDZ 210515Z AUTO 36005KT 10SM OVC033 07/04 A3007 RMK AO2 T00670040
Loading
Personal Weather Stations






























Interactive Weather Map
Tropical Storm Tracking
New forecast layout! Learn more

10-Day Weather Forecast

Advertisements
Track Severe Weather on mobile